Time;durP1;ratioP1;P1;durP2;ratioP2;P2;SDS_P1;SDS_P2;PMS_P1;PMS_P2;Temp;Humidity;BMP_temperature;BMP_pressure;BME280_temperature;BME280_humidity;BME280_pressure;Samples;Min_cycle;Max_cycle;Signal;HPM_P1;HPM_P2
2021/08/26 00:00:00;;;;;;;;;;;19.90;88.90;20.10;99445.00;;;;345708;28;91465;-94
2021/08/26 00:00:13;;;;;;;;;;;19.90;88.90;20.10;99442.00;;;;342959;28;83535;-94
2021/08/26 00:00:25;;;;;;;;;;;19.90;88.80;20.00;99448.00;;;;342756;28;90210;-94
2021/08/26 00:00:42;;;;;;;;;;;19.90;88.70;20.10;99437.00;;;;343325;28;82518;-94
2021/08/26 00:01:01;;;;;;;;;;;19.90;88.80;20.10;99440.00;;;;342503;28;92723;-94
2021/08/26 00:05:43;;;;;;;;;;;19.80;89.40;20.00;99440.00;;;;345459;28;91096;-93
2021/08/26 00:05:55;;;;;;;;;;;19.80;89.30;20.10;99436.00;;;;344687;28;83399;-92
2021/08/26 00:06:14;;;;;;;;;;;19.80;89.30;20.10;99432.00;;;;343034;28;90567;-94
2021/08/26 00:06:25;;;;;;;;;;;19.80;89.20;20.10;99437.00;;;;344559;28;83434;-95
2021/08/26 00:06:37;;;;;;;;;;;19.80;89.20;20.10;99445.00;;;;345422;28;91385;-95
2021/08/26 00:06:49;;;;;;;;;;;19.90;89.10;20.10;99439.00;;;;343422;28;82461;-94
2021/08/26 00:07:02;;;;;;;;;;;19.80;89.10;20.10;99435.00;;;;345491;28;91458;-95
2021/08/26 00:07:17;;;;;;;;;;;19.80;89.10;20.10;99440.00;;;;344656;28;82499;-95
2021/08/26 00:07:28;;;;;;;;;;;19.80;89.00;19.90;99447.00;;;;342926;28;91503;-93
2021/08/26 00:07:40;;;;;;;;;;;19.80;89.00;19.80;99438.00;;;;345933;28;83497;-94
2021/08/26 00:07:53;;;;;;;;;;;19.80;89.20;19.90;99441.00;;;;345597;28;91304;-94
2021/08/26 00:08:06;;;;;;;;;;;19.80;89.30;20.00;99441.00;;;;345925;28;82485;-93
2021/08/26 00:08:19;;;;;;;;;;;19.80;89.30;19.90;99445.00;;;;345672;28;91088;-94
2021/08/26 00:08:32;;;;;;;;;;;19.80;89.20;19.90;99437.00;;;;345462;28;83491;-94
2021/08/26 00:08:45;;;;;;;;;;;19.70;89.00;19.80;99441.00;;;;344094;28;91636;-94
2021/08/26 00:08:57;;;;;;;;;;;19.70;89.00;19.80;99443.00;;;;346111;28;83420;-94
2021/08/26 00:09:09;;;;;;;;;;;19.80;89.10;19.80;99437.00;;;;344234;28;89766;-94
2021/08/26 00:09:21;;;;;;;;;;;19.80;89.60;19.90;99438.00;;;;345992;28;82590;-94
2021/08/26 00:09:34;;;;;;;;;;;19.80;89.00;19.90;99438.00;;;;347064;28;90692;-94
2021/08/26 00:09:46;;;;;;;;;;;19.80;88.90;20.00;99440.00;;;;345853;28;83484;-94
2021/08/26 00:09:58;;;;;;;;;;;19.70;88.90;20.00;99434.00;;;;344188;28;91448;-94
2021/08/26 00:10:13;;;;;;;;;;;19.70;88.90;19.90;99435.00;;;;346108;28;83045;-93
2021/08/26 00:10:24;;;;;;;;;;;19.70;88.90;20.00;99439.00;;;;344269;28;90848;-94
2021/08/26 00:10:38;;;;;;;;;;;19.80;88.90;20.00;99438.00;;;;347343;28;82502;-94
2021/08/26 00:10:52;;;;;;;;;;;19.70;88.90;20.00;99437.00;;;;345623;28;91153;-94
2021/08/26 00:11:04;;;;;;;;;;;19.80;89.00;20.00;99440.00;;;;343373;28;82550;-95
2021/08/26 00:11:21;;;;;;;;;;;19.80;88.90;20.00;99437.00;;;;345389;28;90399;-94
2021/08/26 00:11:32;;;;;;;;;;;19.70;88.70;19.90;99441.00;;;;345719;28;83498;-94
2021/08/26 00:11:46;;;;;;;;;;;19.70;88.70;19.90;99440.00;;;;346010;28;91190;-94
2021/08/26 00:11:58;;;;;;;;;;;19.80;88.80;19.90;99433.00;;;;346075;28;83429;-94
2021/08/26 00:12:11;;;;;;;;;;;19.80;88.80;20.00;99437.00;;;;342950;28;92596;-94
2021/08/26 00:12:23;;;;;;;;;;;19.70;88.70;20.00;99434.00;;;;344593;28;83584;-94
2021/08/26 00:12:36;;;;;;;;;;;19.70;88.80;20.00;99429.00;;;;344276;28;92594;-94
2021/08/26 00:12:48;;;;;;;;;;;19.80;88.90;20.00;99428.00;;;;343300;28;83503;-94
2021/08/26 00:13:02;;;;;;;;;;;19.80;89.00;19.90;99434.00;;;;344286;28;91005;-95
2021/08/26 00:13:15;;;;;;;;;;;19.70;88.80;19.90;99435.00;;;;343320;28;82566;-94
2021/08/26 00:13:26;;;;;;;;;;;19.70;88.80;20.00;99436.00;;;;344235;28;91164;-94
2021/08/26 00:13:39;;;;;;;;;;;19.70;88.90;20.00;99436.00;;;;343389;28;82371;-94
2021/08/26 00:13:52;;;;;;;;;;;19.70;88.90;20.00;99428.00;;;;343962;28;92015;-94
2021/08/26 00:14:05;;;;;;;;;;;19.70;89.10;20.00;99431.00;;;;344538;28;82515;-94
2021/08/26 00:14:17;;;;;;;;;;;19.70;89.10;19.90;99438.00;;;;343744;28;91315;-93
2021/08/26 00:14:29;;;;;;;;;;;19.80;89.20;20.00;99430.00;;;;343111;28;83538;-94
2021/08/26 00:14:41;;;;;;;;;;;19.80;89.10;20.00;99435.00;;;;345786;28;90479;-95
2021/08/26 00:14:53;;;;;;;;;;;19.80;89.10;20.00;99434.00;;;;343255;28;83489;-95
2021/08/26 00:15:06;;;;;;;;;;;19.80;89.10;20.00;99436.00;;;;345547;28;91022;-95
2021/08/26 00:15:18;;;;;;;;;;;19.70;88.90;19.90;99437.00;;;;344576;28;83603;-94
2021/08/26 00:15:30;;;;;;;;;;;19.80;88.90;19.90;99430.00;;;;342987;28;90443;-95
2021/08/26 00:15:43;;;;;;;;;;;19.70;88.80;19.90;99437.00;;;;344618;28;83382;-94
2021/08/26 00:15:57;;;;;;;;;;;19.70;88.90;20.00;99439.00;;;;347097;28;90062;-94
2021/08/26 00:16:09;;;;;;;;;;;19.80;89.00;20.10;99441.00;;;;343343;28;83496;-95
2021/08/26 00:16:25;;;;;;;;;;;19.80;89.10;20.10;99440.00;;;;345132;28;91833;-95
2021/08/26 00:16:40;;;;;;;;;;;19.70;89.00;20.20;99436.00;;;;343387;28;82583;-95
2021/08/26 00:16:52;;;;;;;;;;;19.80;89.00;20.10;99441.00;;;;345276;28;92067;-94
2021/08/26 00:17:04;;;;;;;;;;;19.80;88.90;20.00;99432.00;;;;345901;28;82583;-94
2021/08/26 00:17:16;;;;;;;;;;;19.80;88.90;20.00;99431.00;;;;340948;28;90847;-96
2021/08/26 00:17:28;;;;;;;;;;;19.80;88.80;20.00;99435.00;;;;345126;28;82503;-95
2021/08/26 00:17:40;;;;;;;;;;;19.80;88.90;20.00;99432.00;;;;345570;28;92083;-94
2021/08/26 00:17:52;;;;;;;;;;;19.70;88.90;19.90;99438.00;;;;343172;28;82701;-95
2021/08/26 00:18:04;;;;;;;;;;;19.70;88.90;19.90;99434.00;;;;345595;28;90477;-95
2021/08/26 00:18:16;;;;;;;;;;;19.80;88.90;19.90;99439.00;;;;346006;28;83479;-95
2021/08/26 00:18:28;;;;;;;;;;;19.80;89.00;20.00;99439.00;;;;342829;28;91215;-94
2021/08/26 00:18:40;;;;;;;;;;;19.80;89.10;19.90;99434.00;;;;346012;28;83452;-94
2021/08/26 00:18:52;;;;;;;;;;;19.80;89.10;19.90;99436.00;;;;344194;28;92207;-95
2021/08/26 00:19:04;;;;;;;;;;;19.80;89.00;19.90;99437.00;;;;344558;28;83501;-94
2021/08/26 00:19:16;;;;;;;;;;;19.80;89.00;20.00;99435.00;;;;342845;28;91711;-95
2021/08/26 00:19:30;;;;;;;;;;;19.80;89.00;20.00;99431.00;;;;345987;28;83507;-94
2021/08/26 00:19:42;;;;;;;;;;;19.70;89.00;20.00;99445.00;;;;342765;28;91131;-95
2021/08/26 00:19:54;;;;;;;;;;;19.70;89.20;20.00;99438.00;;;;344552;28;83623;-94
2021/08/26 00:20:06;;;;;;;;;;;19.80;89.40;20.00;99434.00;;;;342917;28;90400;-94
2021/08/26 00:20:19;;;;;;;;;;;19.70;89.20;20.00;99438.00;;;;343994;28;82660;-94
2021/08/26 00:20:32;;;;;;;;;;;19.70;89.30;20.00;99434.00;;;;346566;28;91894;-95
2021/08/26 00:20:47;;;;;;;;;;;19.70;89.20;19.90;99437.00;;;;347866;27;82510;-94
2021/08/26 00:21:00;;;;;;;;;;;19.70;89.20;19.80;99444.00;;;;345560;28;90903;-95
2021/08/26 00:21:12;;;;;;;;;;;19.80;89.30;19.80;99441.00;;;;346086;28;83511;-94
2021/08/26 00:21:24;;;;;;;;;;;19.80;89.40;19.80;99445.00;;;;341553;28;90711;-95
2021/08/26 00:21:40;;;;;;;;;;;19.70;89.30;19.80;99441.00;;;;346086;28;83417;-94
2021/08/26 00:21:52;;;;;;;;;;;19.70;89.30;19.80;99440.00;;;;344184;28;90390;-95
2021/08/26 00:22:04;;;;;;;;;;;19.80;89.40;19.80;99441.00;;;;343273;28;83390;-95
2021/08/26 00:22:17;;;;;;;;;;;19.70;89.20;19.80;99441.00;;;;344350;28;90319;-94
2021/08/26 00:22:29;;;;;;;;;;;19.70;89.10;19.80;99438.00;;;;344704;28;83474;-95
2021/08/26 00:22:41;;;;;;;;;;;19.70;89.10;19.80;99440.00;;;;341439;28;92317;-94
2021/08/26 00:22:53;;;;;;;;;;;19.70;89.10;19.80;99440.00;;;;344648;28;83427;-95
2021/08/26 00:23:05;;;;;;;;;;;19.70;89.10;19.80;99440.00;;;;344010;28;90504;-95
2021/08/26 00:23:17;;;;;;;;;;;19.70;89.00;19.80;99442.00;;;;345035;28;83634;-94
2021/08/26 00:23:29;;;;;;;;;;;19.70;89.00;19.80;99437.00;;;;343441;28;90676;-94
2021/08/26 00:23:41;;;;;;;;;;;19.70;88.90;19.80;99433.00;;;;347111;28;83519;-94
2021/08/26 00:23:53;;;;;;;;;;;19.70;89.00;19.80;99431.00;;;;345515;28;91779;-94
2021/08/26 00:24:06;;;;;;;;;;;19.70;89.00;19.80;99436.00;;;;344685;28;83509;-94
2021/08/26 00:24:17;;;;;;;;;;;19.70;89.10;19.80;99427.00;;;;346893;28;91705;-94
2021/08/26 00:24:29;;;;;;;;;;;19.70;89.10;19.80;99429.00;;;;345885;28;84433;-95
2021/08/26 00:24:41;;;;;;;;;;;19.60;89.10;19.70;99441.00;;;;344190;28;91949;-94
2021/08/26 00:24:53;;;;;;;;;;;19.70;89.40;19.70;99427.00;;;;343359;28;83476;-94
2021/08/26 00:25:05;;;;;;;;;;;19.60;89.50;19.70;99433.00;;;;342816;28;90356;-95
2021/08/26 00:25:17;;;;;;;;;;;19.70;89.70;19.70;99432.00;;;;343368;28;82602;-94
2021/08/26 00:25:29;;;;;;;;;;;19.60;89.50;19.70;99437.00;;;;342801;28;92217;-94
2021/08/26 00:25:40;;;;;;;;;;;19.70;89.40;19.80;99435.00;;;;344455;28;83398;-95
2021/08/26 00:25:52;;;;;;;;;;;19.60;89.20;19.80;99430.00;;;;344184;28;91405;-94
2021/08/26 00:26:04;;;;;;;;;;;19.70;89.30;19.80;99430.00;;;;346035;28;83416;-94
2021/08/26 00:26:16;;;;;;;;;;;19.70;89.30;19.80;99427.00;;;;341204;28;90878;-94
2021/08/26 00:26:31;;;;;;;;;;;19.60;89.30;19.80;99425.00;;;;347272;28;83478;-95
2021/08/26 00:26:43;;;;;;;;;;;19.60;89.70;19.70;99434.00;;;;345864;28;92176;-94
2021/08/26 00:26:55;;;;;;;;;;;19.60;89.70;19.70;99428.00;;;;344600;28;83519;-94
2021/08/26 00:27:07;;;;;;;;;;;19.60;89.70;19.70;99437.00;;;;345495;28;92219;-95
2021/08/26 00:27:18;;;;;;;;;;;19.60;89.80;19.70;99434.00;;;;345384;28;83530;-95
2021/08/26 00:27:30;;;;;;;;;;;19.60;89.60;19.70;99430.00;;;;344222;28;91063;-95
2021/08/26 00:27:43;;;;;;;;;;;19.60;89.50;19.70;99442.00;;;;347224;28;83385;-94
2021/08/26 00:27:54;;;;;;;;;;;19.60;89.60;19.80;99433.00;;;;345484;28;91840;-96
2021/08/26 00:28:06;;;;;;;;;;;19.60;89.50;19.70;99432.00;;;;347335;28;83393;-94
2021/08/26 00:28:18;;;;;;;;;;;19.60;89.50;19.70;99430.00;;;;346882;27;91742;-94
2021/08/26 00:28:30;;;;;;;;;;;19.60;89.50;19.70;99434.00;;;;346038;28;82485;-95
2021/08/26 00:28:42;;;;;;;;;;;19.60;89.60;19.70;99431.00;;;;346924;28;92558;-94
2021/08/26 00:28:54;;;;;;;;;;;19.60;89.60;19.70;99432.00;;;;345990;28;82517;-94
2021/08/26 00:29:05;;;;;;;;;;;19.60;89.60;19.80;99428.00;;;;346865;28;91284;-94
2021/08/26 00:29:17;;;;;;;;;;;19.60;89.70;19.80;99429.00;;;;346935;27;83699;-94
2021/08/26 00:29:29;;;;;;;;;;;19.60;89.60;19.70;99428.00;;;;344771;28;91768;-95
2021/08/26 00:29:41;;;;;;;;;;;19.60;89.60;19.70;99431.00;;;;344653;28;83351;-95
2021/08/26 00:29:53;;;;;;;;;;;19.60;89.80;19.70;99430.00;;;;344042;28;92205;-95
2021/08/26 00:30:05;;;;;;;;;;;19.60;89.70;19.70;99434.00;;;;345775;28;82597;-95
2021/08/26 00:30:17;;;;;;;;;;;19.60;89.60;19.70;99433.00;;;;344174;28;91959;-95
2021/08/26 00:30:29;;;;;;;;;;;19.60;89.70;19.70;99433.00;;;;344557;28;83499;-94
2021/08/26 00:30:41;;;;;;;;;;;19.50;89.60;19.70;99430.00;;;;344207;28;91427;-93
2021/08/26 00:30:53;;;;;;;;;;;19.50;89.60;19.70;99428.00;;;;344674;28;83497;-95
2021/08/26 00:31:04;;;;;;;;;;;19.50;89.60;19.80;99428.00;;;;346825;27;91814;-95
2021/08/26 00:31:16;;;;;;;;;;;19.60;89.70;19.80;99429.00;;;;344736;28;83410;-95
2021/08/26 00:31:28;;;;;;;;;;;19.60;89.70;19.80;99439.00;;;;342823;28;89350;-95
2021/08/26 00:31:40;;;;;;;;;;;19.60;89.90;19.80;99440.00;;;;344650;28;83310;-94
2021/08/26 00:31:52;;;;;;;;;;;19.60;90.00;19.80;99430.00;;;;344258;28;90522;-94
2021/08/26 00:32:05;;;;;;;;;;;19.60;89.90;19.80;99427.00;;;;344637;28;82550;-94
2021/08/26 00:32:17;;;;;;;;;;;19.60;89.90;19.80;99433.00;;;;347739;27;91961;-94
2021/08/26 00:32:28;;;;;;;;;;;19.60;89.90;19.70;99434.00;;;;343741;28;83455;-94
2021/08/26 00:32:40;;;;;;;;;;;19.60;90.00;19.70;99428.00;;;;345484;28;93006;-94
2021/08/26 00:32:52;;;;;;;;;;;19.60;90.00;19.80;99430.00;;;;346081;28;83369;-94
2021/08/26 00:33:04;;;;;;;;;;;19.60;90.00;19.70;99435.00;;;;342506;28;89831;-95
2021/08/26 00:33:16;;;;;;;;;;;19.60;90.00;19.70;99434.00;;;;346569;28;82491;-95
2021/08/26 00:33:28;;;;;;;;;;;19.60;90.00;19.70;99431.00;;;;344135;28;91725;-95
2021/08/26 00:33:40;;;;;;;;;;;19.60;89.90;19.70;99435.00;;;;345945;28;82537;-93
2021/08/26 00:33:52;;;;;;;;;;;19.60;90.00;19.70;99437.00;;;;344025;28;90627;-95
2021/08/26 00:34:04;;;;;;;;;;;19.60;89.80;19.70;99436.00;;;;343323;28;83604;-95
2021/08/26 00:34:16;;;;;;;;;;;19.60;89.80;19.80;99433.00;;;;344244;28;91778;-94
2021/08/26 00:34:27;;;;;;;;;;;19.60;89.80;19.80;99431.00;;;;343326;28;83420;-94
2021/08/26 00:34:39;;;;;;;;;;;19.60;89.80;19.80;99434.00;;;;342758;28;93303;-94
2021/08/26 00:34:51;;;;;;;;;;;19.50;89.80;19.90;99432.00;;;;346273;28;82361;-94
2021/08/26 00:35:03;;;;;;;;;;;19.60;90.00;19.90;99433.00;;;;344095;28;91633;-95
2021/08/26 00:35:15;;;;;;;;;;;19.60;90.20;19.80;99430.00;;;;343860;28;85511;-94
2021/08/26 00:35:27;;;;;;;;;;;19.60;89.90;19.70;99432.00;;;;340162;28;90778;-95
2021/08/26 00:35:39;;;;;;;;;;;19.60;89.70;19.60;99440.00;;;;344596;28;82643;-94
2021/08/26 00:35:51;;;;;;;;;;;19.60;89.80;19.50;99431.00;;;;344150;28;91434;-94
2021/08/26 00:36:03;;;;;;;;;;;19.60;89.90;19.60;99437.00;;;;344480;28;84225;-95
2021/08/26 00:36:16;;;;;;;;;;;19.60;89.90;19.60;99434.00;;;;344600;28;91071;-93
2021/08/26 00:36:28;;;;;;;;;;;19.50;89.80;19.60;99432.00;;;;344571;28;83455;-95
2021/08/26 00:36:40;;;;;;;;;;;19.50;89.80;19.80;99439.00;;;;342779;28;91861;-96
2021/08/26 00:36:52;;;;;;;;;;;19.50;89.80;19.90;99432.00;;;;346056;28;83373;-94
2021/08/26 00:37:04;;;;;;;;;;;19.60;89.90;19.90;99436.00;;;;344141;28;91785;-94
2021/08/26 00:37:16;;;;;;;;;;;19.60;89.90;19.70;99436.00;;;;344539;28;83507;-94
2021/08/26 00:37:28;;;;;;;;;;;19.60;89.90;19.80;99433.00;;;;344145;28;92069;-95
2021/08/26 00:37:40;;;;;;;;;;;19.50;89.80;19.80;99442.00;;;;344574;28;83424;-94
2021/08/26 00:37:51;;;;;;;;;;;19.60;89.80;19.80;99431.00;;;;345623;28;90500;-94
2021/08/26 00:38:03;;;;;;;;;;;19.50;89.70;19.70;99436.00;;;;346005;28;83433;-95
2021/08/26 00:38:15;;;;;;;;;;;19.60;89.80;19.80;99439.00;;;;343151;28;90695;-94
2021/08/26 00:38:27;;;;;;;;;;;19.60;89.80;19.90;99440.00;;;;346044;28;83523;-94
2021/08/26 00:38:39;;;;;;;;;;;19.60;89.90;19.90;99447.00;;;;345324;28;91629;-94
2021/08/26 00:38:51;;;;;;;;;;;19.50;89.80;19.80;99438.00;;;;341938;28;83449;-95
2021/08/26 00:39:02;;;;;;;;;;;19.60;89.60;19.80;99439.00;;;;342842;28;91847;-95
2021/08/26 00:39:14;;;;;;;;;;;19.60;89.60;19.70;99426.00;;;;337652;28;83391;-95
2021/08/26 00:39:26;;;;;;;;;;;19.60;89.60;19.70;99436.00;;;;345643;28;90731;-95
2021/08/26 00:39:38;;;;;;;;;;;19.60;89.80;19.60;99441.00;;;;344548;28;83423;-94
2021/08/26 00:39:50;;;;;;;;;;;19.60;89.80;19.60;99433.00;;;;344221;28;91333;-94
2021/08/26 00:40:02;;;;;;;;;;;19.50;89.70;19.60;99437.00;;;;344592;28;83912;-94
2021/08/26 00:40:14;;;;;;;;;;;19.50;89.80;19.60;99437.00;;;;341288;28;92157;-94
2021/08/26 00:40:26;;;;;;;;;;;19.50;89.80;19.70;99438.00;;;;344609;28;82607;-95
2021/08/26 00:40:38;;;;;;;;;;;19.50;89.70;19.60;99435.00;;;;345211;28;92648;-94
2021/08/26 00:40:51;;;;;;;;;;;19.50;89.70;19.60;99440.00;;;;342017;28;82463;-94
2021/08/26 00:41:03;;;;;;;;;;;19.50;89.90;19.60;99433.00;;;;345500;28;91384;-94
2021/08/26 00:41:18;;;;;;;;;;;19.50;90.00;19.60;99439.00;;;;346248;28;82698;-94
2021/08/26 00:41:30;;;;;;;;;;;19.50;89.90;19.70;99437.00;;;;342207;28;91738;-94
2021/08/26 00:41:43;;;;;;;;;;;19.50;89.90;19.70;99435.00;;;;347306;27;82533;-94
2021/08/26 00:41:54;;;;;;;;;;;19.50;89.90;19.70;99430.00;;;;345601;28;90371;-94
2021/08/26 00:42:07;;;;;;;;;;;19.50;89.90;19.60;99431.00;;;;344721;28;82493;-95
2021/08/26 00:42:19;;;;;;;;;;;19.50;89.90;19.60;99442.00;;;;346897;28;91682;-94
2021/08/26 00:42:30;;;;;;;;;;;19.50;89.90;19.60;99436.00;;;;343200;28;82534;-95
2021/08/26 00:42:42;;;;;;;;;;;19.50;89.90;19.60;99435.00;;;;344151;28;92917;-96
2021/08/26 00:42:57;;;;;;;;;;;19.50;90.00;19.60;99432.00;;;;347420;28;83392;-96
2021/08/26 00:43:13;;;;;;;;;;;19.50;90.10;19.50;99434.00;;;;344020;28;91763;-93
2021/08/26 00:43:28;;;;;;;;;;;19.50;90.10;19.50;99422.00;;;;344638;28;83399;-94
2021/08/26 00:43:39;;;;;;;;;;;19.50;90.20;19.60;99435.00;;;;342838;28;91524;-95
2021/08/26 00:43:51;;;;;;;;;;;19.50;90.10;19.70;99437.00;;;;346032;28;82515;-94
2021/08/26 00:44:03;;;;;;;;;;;19.50;90.10;19.60;99431.00;;;;342636;28;91122;-95
2021/08/26 00:44:15;;;;;;;;;;;19.50;90.00;19.60;99439.00;;;;346353;28;86275;-94
2021/08/26 00:44:27;;;;;;;;;;;19.50;90.00;19.60;99435.00;;;;344286;28;91335;-95
2021/08/26 00:44:39;;;;;;;;;;;19.40;90.00;19.60;99428.00;;;;343288;28;83493;-94
2021/08/26 00:44:51;;;;;;;;;;;19.40;89.90;19.70;99437.00;;;;345319;28;91400;-94
2021/08/26 00:45:04;;;;;;;;;;;19.50;90.00;19.70;99432.00;;;;345975;28;82589;-94
2021/08/26 00:45:16;;;;;;;;;;;19.50;90.00;19.70;99437.00;;;;342843;28;91340;-94
2021/08/26 00:45:30;;;;;;;;;;;19.50;90.00;19.70;99436.00;;;;344670;28;82483;-94
2021/08/26 00:45:42;;;;;;;;;;;19.50;90.00;19.60;99439.00;;;;337348;28;91379;-94
2021/08/26 00:45:54;;;;;;;;;;;19.50;90.00;19.60;99436.00;;;;339110;28;83484;-94
2021/08/26 00:46:06;;;;;;;;;;;19.50;90.00;19.60;99434.00;;;;342964;28;89803;-94
2021/08/26 00:46:18;;;;;;;;;;;19.50;89.90;19.50;99433.00;;;;344626;28;83314;-95
2021/08/26 00:46:30;;;;;;;;;;;19.40;90.00;19.60;99435.00;;;;344344;28;91620;-95
2021/08/26 00:46:42;;;;;;;;;;;19.40;90.00;19.50;99437.00;;;;343470;28;82584;-95
2021/08/26 00:46:54;;;;;;;;;;;19.40;90.00;19.50;99428.00;;;;345104;28;90114;-94
2021/08/26 00:47:06;;;;;;;;;;;19.40;90.00;19.50;99432.00;;;;344556;28;83477;-94
2021/08/26 00:47:17;;;;;;;;;;;19.40;90.10;19.40;99436.00;;;;344457;28;90640;-94
2021/08/26 00:47:29;;;;;;;;;;;19.40;90.10;19.40;99435.00;;;;345311;28;82581;-94
2021/08/26 00:47:44;;;;;;;;;;;19.40;90.20;19.50;99435.00;;;;342795;28;91545;-95
2021/08/26 00:47:55;;;;;;;;;;;19.40;90.10;19.60;99434.00;;;;345594;28;84074;-94
2021/08/26 00:48:07;;;;;;;;;;;19.40;90.10;19.70;99431.00;;;;342774;28;90600;-94
2021/08/26 00:48:22;;;;;;;;;;;19.40;90.10;19.50;99435.00;;;;345665;28;82645;-94
2021/08/26 00:48:34;;;;;;;;;;;19.40;90.10;19.50;99435.00;;;;348251;27;90983;-94
2021/08/26 00:48:47;;;;;;;;;;;19.40;90.20;19.50;99430.00;;;;343227;28;83454;-94
2021/08/26 00:48:59;;;;;;;;;;;19.40;90.20;19.50;99436.00;;;;346839;28;92762;-95
2021/08/26 00:49:11;;;;;;;;;;;19.40;90.20;19.60;99433.00;;;;345903;28;83502;-94
2021/08/26 00:49:29;;;;;;;;;;;19.40;90.20;19.70;99433.00;;;;342858;28;90908;-94
2021/08/26 00:49:41;;;;;;;;;;;19.40;90.20;19.50;99439.00;;;;344628;28;82440;-94
2021/08/26 00:49:54;;;;;;;;;;;19.40;90.20;19.50;99433.00;;;;342736;28;91826;-95
2021/08/26 00:50:06;;;;;;;;;;;19.40;90.20;19.60;99439.00;;;;343224;28;83451;-94
2021/08/26 00:50:18;;;;;;;;;;;19.40;90.20;19.70;99431.00;;;;342840;28;90831;-94
2021/08/26 00:50:30;;;;;;;;;;;19.40;90.20;19.70;99433.00;;;;345359;28;82575;-94
2021/08/26 00:50:42;;;;;;;;;;;19.40;90.20;19.70;99434.00;;;;346903;28;91997;-95
2021/08/26 00:50:54;;;;;;;;;;;19.40;90.10;19.60;99432.00;;;;347400;28;83448;-94
2021/08/26 00:51:06;;;;;;;;;;;19.40;90.10;19.70;99430.00;;;;345404;28;93075;-92
2021/08/26 00:51:18;;;;;;;;;;;19.40;90.20;19.80;99426.00;;;;346537;28;82615;-94
2021/08/26 00:51:31;;;;;;;;;;;19.50;90.20;19.70;99429.00;;;;344177;28;92072;-95
2021/08/26 00:51:44;;;;;;;;;;;19.40;90.20;19.80;99444.00;;;;343279;28;82537;-94
2021/08/26 00:51:56;;;;;;;;;;;19.50;90.20;19.80;99433.00;;;;342718;28;91944;-94
2021/08/26 00:52:10;;;;;;;;;;;19.50;90.20;19.80;99438.00;;;;343240;28;83437;-94
2021/08/26 00:52:22;;;;;;;;;;;19.50;90.20;19.80;99437.00;;;;342693;28;90386;-94
2021/08/26 00:52:36;;;;;;;;;;;19.50;90.20;19.80;99430.00;;;;343266;28;83405;-95
2021/08/26 00:52:47;;;;;;;;;;;19.40;90.10;19.70;99432.00;;;;342641;28;91127;-95
2021/08/26 00:53:00;;;;;;;;;;;19.50;90.10;19.80;99435.00;;;;344384;28;83602;-94
2021/08/26 00:53:12;;;;;;;;;;;19.50;90.10;19.80;99432.00;;;;343860;28;92232;-95
2021/08/26 00:53:23;;;;;;;;;;;19.50;90.00;19.80;99442.00;;;;342813;28;82578;-95
2021/08/26 00:53:40;;;;;;;;;;;19.50;90.10;19.80;99437.00;;;;344214;28;91963;-95
2021/08/26 00:53:53;;;;;;;;;;;19.50;90.10;19.70;99431.00;;;;346041;28;82516;-94
2021/08/26 00:54:06;;;;;;;;;;;19.50;90.00;19.70;99439.00;;;;344080;28;90114;-94
2021/08/26 00:54:17;;;;;;;;;;;19.50;90.00;19.70;99435.00;;;;345067;28;83550;-95
2021/08/26 00:54:29;;;;;;;;;;;19.50;90.00;19.80;99436.00;;;;342779;28;91460;-94
2021/08/26 00:54:41;;;;;;;;;;;19.50;90.00;19.70;99437.00;;;;344591;28;83389;-95
2021/08/26 00:54:54;;;;;;;;;;;19.50;90.00;19.70;99435.00;;;;345432;28;90489;-94
2021/08/26 00:55:07;;;;;;;;;;;19.50;90.10;19.70;99437.00;;;;345909;28;82544;-94
2021/08/26 00:55:19;;;;;;;;;;;19.50;90.00;19.80;99440.00;;;;345398;28;92324;-94
2021/08/26 00:55:30;;;;;;;;;;;19.50;90.00;19.80;99436.00;;;;344683;28;82492;-94
2021/08/26 00:55:42;;;;;;;;;;;19.50;90.10;19.80;99430.00;;;;343962;28;89845;-94
2021/08/26 00:55:54;;;;;;;;;;;19.50;90.10;19.90;99436.00;;;;345886;28;83502;-94
2021/08/26 00:56:11;;;;;;;;;;;19.50;90.10;19.80;99441.00;;;;342664;28;90734;-95
2021/08/26 00:56:23;;;;;;;;;;;19.50;90.00;19.80;99435.00;;;;345130;28;83645;-95
2021/08/26 00:56:36;;;;;;;;;;;19.50;90.00;19.80;99438.00;;;;344247;28;90191;-94
2021/08/26 00:56:48;;;;;;;;;;;19.50;90.00;19.80;99443.00;;;;346078;28;83371;-94
2021/08/26 00:56:59;;;;;;;;;;;19.50;89.90;19.80;99432.00;;;;344278;28;90680;-94
2021/08/26 00:57:11;;;;;;;;;;;19.50;89.90;19.70;99434.00;;;;345964;28;83447;-95
2021/08/26 00:57:23;;;;;;;;;;;19.50;90.30;19.80;99441.00;;;;344041;28;91631;-94
2021/08/26 00:57:36;;;;;;;;;;;19.50;90.00;19.80;99439.00;;;;344652;28;83418;-94
2021/08/26 00:57:48;;;;;;;;;;;19.50;90.00;19.80;99434.00;;;;345621;28;90310;-94
2021/08/26 00:58:01;;;;;;;;;;;19.50;90.00;19.70;99436.00;;;;345980;28;82552;-94
2021/08/26 00:58:13;;;;;;;;;;;19.50;90.00;19.70;99435.00;;;;344145;28;91841;-95
2021/08/26 00:58:25;;;;;;;;;;;19.50;90.00;19.80;99440.00;;;;343294;28;83470;-94
2021/08/26 00:58:36;;;;;;;;;;;19.50;90.00;19.80;99438.00;;;;345541;28;90349;-94
2021/08/26 00:58:49;;;;;;;;;;;19.50;90.00;19.80;99444.00;;;;343233;28;82583;-95
2021/08/26 00:59:01;;;;;;;;;;;19.50;90.00;19.80;99433.00;;;;342756;28;91189;-94
2021/08/26 00:59:13;;;;;;;;;;;19.50;90.00;19.70;99437.00;;;;344596;28;83428;-95
2021/08/26 00:59:26;;;;;;;;;;;19.50;90.00;19.70;99435.00;;;;345010;28;91685;-94
2021/08/26 00:59:38;;;;;;;;;;;19.50;90.00;19.70;99428.00;;;;345982;28;83443;-93
2021/08/26 00:59:52;;;;;;;;;;;19.50;90.00;19.70;99434.00;;;;345136;28;89902;-94
2021/08/26 01:00:06;;;;;;;;;;;19.50;90.00;19.60;99435.00;;;;344735;28;82492;-95
2021/08/26 01:00:18;;;;;;;;;;;19.50;90.00;19.70;99432.00;;;;344847;28;90628;-94
2021/08/26 01:00:30;;;;;;;;;;;19.50;90.00;19.70;99435.00;;;;344428;28;82627;-94
2021/08/26 01:00:56;;;;;;;;;;;19.50;90.10;19.70;99437.00;;;;337367;28;90188;-94
2021/08/26 01:01:08;;;;;;;;;;;19.50;90.10;19.70;99435.00;;;;343345;28;83341;-94
2021/08/26 01:01:29;;;;;;;;;;;19.50;90.10;19.60;99439.00;;;;338696;28;91960;-95
2021/08/26 01:02:16;;;;;;;;;;;19.50;90.20;19.80;99437.00;;;;344759;28;83527;-94
2021/08/26 01:02:59;;;;;;;;;;;19.50;90.10;19.90;99445.00;;;;344217;28;92709;-94
2021/08/26 01:03:14;;;;;;;;;;;19.50;90.20;19.60;99447.00;;;;343352;28;83393;-94
2021/08/26 01:03:40;;;;;;;;;;;19.50;90.20;19.50;99440.00;;;;344124;28;91112;-94
2021/08/26 01:04:23;;;;;;;;;;;19.50;90.20;19.50;99441.00;;;;346041;28;83509;-94
2021/08/26 01:04:50;;;;;;;;;;;19.50;90.20;19.40;99440.00;;;;344172;28;91511;-94
2021/08/26 01:05:11;;;;;;;;;;;19.40;90.30;19.40;99442.00;;;;347240;28;83385;-95
2021/08/26 01:05:26;;;;;;;;;;;19.40;90.40;19.50;99443.00;;;;344112;28;92122;-95
2021/08/26 01:05:41;;;;;;;;;;;19.40;90.40;19.60;99440.00;;;;345957;28;83443;-94
2021/08/26 01:05:56;;;;;;;;;;;19.40;90.40;19.60;99438.00;;;;342858;28;90570;-94
2021/08/26 01:06:13;;;;;;;;;;;19.40;90.40;19.70;99436.00;;;;341817;28;83501;-94
2021/08/26 01:06:32;;;;;;;;;;;19.40;90.40;19.60;99443.00;;;;343974;28;92534;-94
2021/08/26 01:07:00;;;;;;;;;;;19.40;90.40;19.50;99444.00;;;;344666;28;82487;-95
2021/08/26 01:07:51;;;;;;;;;;;19.40;90.30;19.50;99439.00;;;;344011;28;90446;-94
2021/08/26 01:08:18;;;;;;;;;;;19.40;90.40;19.40;99438.00;;;;342712;28;83457;-94
2021/08/26 01:08:45;;;;;;;;;;;19.30;90.20;19.50;99438.00;;;;344703;28;92029;-95
2021/08/26 01:09:02;;;;;;;;;;;19.30;90.20;19.40;99438.00;;;;346009;28;82554;-95
2021/08/26 01:09:14;;;;;;;;;;;19.30;90.30;19.40;99443.00;;;;344320;28;90476;-94
2021/08/26 01:09:32;;;;;;;;;;;19.30;90.40;19.40;99438.00;;;;347096;28;83562;-95
2021/08/26 01:09:48;;;;;;;;;;;19.30;90.40;19.30;99441.00;;;;344090;28;91914;-94
2021/08/26 01:10:07;;;;;;;;;;;19.30;90.40;19.30;99441.00;;;;344389;28;82446;-94
2021/08/26 01:10:19;;;;;;;;;;;19.30;90.50;19.30;99434.00;;;;344276;28;91527;-94
2021/08/26 01:10:31;;;;;;;;;;;19.30;90.50;19.20;99437.00;;;;345930;28;83388;-94